createdAt,value
2022-11-02T00:10:21.187Z,98420
2022-11-02T00:22:21.190Z,98420
2022-11-02T00:34:21.291Z,98430
2022-11-02T00:46:21.189Z,98410
2022-11-02T00:58:21.296Z,98410
2022-11-02T01:10:21.238Z,98410
2022-11-02T01:22:21.291Z,98420
2022-11-02T01:34:21.267Z,98400
2022-11-02T01:46:21.302Z,98410
2022-11-02T01:58:21.189Z,98390
2022-11-02T02:10:21.182Z,98400
2022-11-02T02:22:21.469Z,98400
2022-11-02T02:34:21.283Z,98400
2022-11-02T02:46:21.304Z,98420
2022-11-02T02:58:21.304Z,98430
2022-11-02T03:10:21.182Z,98420
2022-11-02T03:22:21.431Z,98400
2022-11-02T03:34:21.292Z,98420
2022-11-02T03:46:21.250Z,98440
2022-11-02T03:58:21.188Z,98460
2022-11-02T04:10:21.187Z,98450
2022-11-02T04:22:21.188Z,98470
2022-11-02T04:34:21.190Z,98470
2022-11-02T04:46:21.299Z,98470
2022-11-02T04:58:21.192Z,98490
2022-11-02T05:10:21.282Z,98500
2022-11-02T05:22:21.253Z,98510
2022-11-02T05:34:21.310Z,98520
2022-11-02T05:46:21.192Z,98530
2022-11-02T05:58:21.192Z,98550
2022-11-02T06:10:21.248Z,98550
2022-11-02T06:22:21.185Z,98570
2022-11-02T06:34:21.279Z,98570
2022-11-02T06:46:21.267Z,98590
2022-11-02T06:58:21.188Z,98620
2022-11-02T07:10:21.194Z,98620
2022-11-02T07:22:21.259Z,98660
2022-11-02T07:34:21.212Z,98670
2022-11-02T07:46:21.206Z,98680
2022-11-02T07:58:21.269Z,98690
2022-11-02T08:10:21.198Z,98720
2022-11-02T08:22:21.409Z,98730
2022-11-02T08:34:21.205Z,98720
2022-11-02T08:46:21.219Z,98700
2022-11-02T08:58:21.187Z,98730
2022-11-02T09:10:21.304Z,98740
2022-11-02T09:22:21.193Z,98760
2022-11-02T09:34:21.186Z,98770
2022-11-02T09:46:21.280Z,98800
2022-11-02T09:58:21.276Z,98830
2022-11-02T10:10:21.243Z,98820
2022-11-02T10:22:21.199Z,98820
2022-11-02T10:34:21.199Z,98820
2022-11-02T10:46:21.183Z,98830
2022-11-02T10:58:21.305Z,98830
2022-11-02T11:10:21.189Z,98840
2022-11-02T11:22:21.280Z,98850
2022-11-02T11:34:21.196Z,98840
2022-11-02T11:46:21.195Z,98870
2022-11-02T11:58:21.204Z,98830
2022-11-02T12:10:21.188Z,98820
2022-11-02T12:22:21.190Z,98820
2022-11-02T12:34:21.184Z,98800
2022-11-02T12:46:21.190Z,98800
2022-11-02T12:58:21.197Z,98800
2022-11-02T13:10:21.212Z,98830
2022-11-02T13:22:21.201Z,98800
2022-11-02T13:34:21.195Z,98810
2022-11-02T13:46:21.227Z,98810
2022-11-02T13:58:21.213Z,98810
2022-11-02T14:10:21.226Z,98810
2022-11-02T14:22:21.190Z,98790
2022-11-02T14:34:21.291Z,98800
2022-11-02T14:46:21.241Z,98790
2022-11-02T14:58:21.268Z,98780
2022-11-02T15:10:21.309Z,98770
2022-11-02T15:22:21.463Z,98760
2022-11-02T15:34:21.387Z,98750
2022-11-02T15:46:21.515Z,98740
2022-11-02T15:58:21.455Z,98720
2022-11-02T16:10:21.194Z,98720
2022-11-02T16:22:21.282Z,98710
2022-11-02T16:34:21.197Z,98710
2022-11-02T16:46:21.531Z,98710
2022-11-02T16:58:21.299Z,98710
2022-11-02T17:10:21.264Z,98700
2022-11-02T17:22:21.285Z,98700
2022-11-02T17:34:21.305Z,98700
2022-11-02T17:46:21.300Z,98680
2022-11-02T17:58:21.190Z,98680
2022-11-02T18:10:21.186Z,98680
2022-11-02T18:22:21.198Z,98680
2022-11-02T18:34:21.316Z,98680
2022-11-02T18:46:22.054Z,98650
2022-11-02T18:58:21.191Z,98650
2022-11-02T19:10:21.189Z,98620
2022-11-02T19:22:21.307Z,98600
2022-11-02T19:34:21.302Z,98590
2022-11-02T19:46:21.288Z,98590
2022-11-02T19:58:21.270Z,98580
2022-11-02T20:10:21.184Z,98570
2022-11-02T20:22:21.246Z,98570
2022-11-02T20:34:21.315Z,98550
2022-11-02T20:46:37.106Z,98540
2022-11-02T20:58:21.304Z,98550
2022-11-02T21:10:21.188Z,98540
2022-11-02T21:22:21.193Z,98520
2022-11-02T21:34:21.209Z,98510
2022-11-02T21:46:21.288Z,98500
2022-11-02T21:58:21.293Z,98480
2022-11-02T22:10:21.266Z,98480
2022-11-02T22:22:21.189Z,98460
2022-11-02T22:34:21.194Z,98460
2022-11-02T22:46:21.204Z,98440
2022-11-02T22:58:21.246Z,98440
2022-11-02T23:10:21.191Z,98440
2022-11-02T23:22:21.292Z,98420
2022-11-02T23:34:21.294Z,98410
2022-11-02T23:46:21.192Z,98390
2022-11-02T23:58:21.303Z,98370
